Time;durP1;ratioP1;P1;durP2;ratioP2;P2;SDS_P1;SDS_P2;PMS_P1;PMS_P2;Temp;Humidity;BMP_temperature;BMP_pressure;BME280_temperature;BME280_humidity;BME280_pressure;Samples;Min_cycle;Max_cycle;Signal;HPM_P1;HPM_P2
2022/10/17 00:01:48;;;;;;;7.57;5.80;;;;;;;11.37;100.00;100803.22;4917388;29;20480;-73
2022/10/17 00:04:14;;;;;;;8.77;7.17;;;;;;;11.35;100.00;100813.22;4917234;29;20071;-73
2022/10/17 00:06:39;;;;;;;8.97;6.10;;;;;;;11.24;100.00;100784.19;4900199;29;20048;-73
2022/10/17 00:09:05;;;;;;;7.73;6.17;;;;;;;11.36;100.00;100820.22;4917235;29;20063;-72
2022/10/17 00:11:30;;;;;;;6.40;5.50;;;;;;;11.35;100.00;100804.38;4917172;29;20032;-73
2022/10/17 00:13:56;;;;;;;6.50;5.40;;;;;;;11.36;100.00;100809.56;4917182;29;20095;-74
2022/10/17 00:16:27;;;;;;;8.53;6.20;;;;;;;11.32;100.00;100810.88;4916983;29;20168;-74
2022/10/17 00:18:53;;;;;;;6.43;5.47;;;;;;;11.30;100.00;100799.56;4917359;29;20024;-74
2022/10/17 00:21:19;;;;;;;7.37;5.93;;;;;;;11.30;100.00;100801.41;4900266;29;20475;-73
2022/10/17 00:23:46;;;;;;;6.60;5.83;;;;;;;11.30;100.00;100794.22;4917174;29;20032;-74
2022/10/17 00:26:11;;;;;;;7.63;5.77;;;;;;;11.37;100.00;100802.38;4916663;29;20062;-73
2022/10/17 00:28:37;;;;;;;6.20;5.60;;;;;;;11.34;100.00;100802.72;4916695;29;20465;-74
2022/10/17 00:31:05;;;;;;;7.70;5.77;;;;;;;11.32;100.00;100802.91;4916691;29;20039;-73
2022/10/17 00:33:32;;;;;;;9.40;5.95;;;;;;;11.27;100.00;100799.88;4916943;29;20032;-73
2022/10/17 00:36:15;;;;;;;7.33;6.07;;;;;;;11.35;100.00;100791.88;4916938;29;20035;-73
2022/10/17 00:38:43;;;;;;;8.47;5.87;;;;;;;11.43;100.00;100794.53;4916813;29;20032;-73
2022/10/17 00:41:10;;;;;;;6.53;5.60;;;;;;;11.45;100.00;100789.88;4916373;29;20032;-73
2022/10/17 00:43:57;;;;;;;10.60;6.53;;;;;;;11.46;100.00;100799.53;4916434;29;20138;-74
2022/10/17 00:46:25;;;;;;;7.37;5.67;;;;;;;11.28;100.00;100788.22;4916698;29;20036;-74
2022/10/17 00:48:53;;;;;;;7.68;6.32;;;;;;;11.25;100.00;100801.03;4916839;29;20376;-73
2022/10/17 00:51:22;;;;;;;6.72;5.93;;;;;;;11.21;100.00;100794.38;4916547;29;20051;-74
2022/10/17 00:53:50;;;;;;;7.40;5.97;;;;;;;11.28;100.00;100796.22;4916250;29;20042;-73
2022/10/17 00:56:19;;;;;;;10.40;5.97;;;;;;;11.33;100.00;100804.56;4899791;29;20028;-73
2022/10/17 00:58:45;;;;;;;7.97;5.63;;;;;;;11.34;100.00;100805.38;4916591;29;20035;-73
2022/10/17 01:01:10;;;;;;;9.03;6.40;;;;;;;11.34;100.00;100797.38;4916334;29;20058;-74
2022/10/17 01:03:36;;;;;;;9.03;6.63;;;;;;;11.27;100.00;100796.38;4916418;29;20077;-73
2022/10/17 01:06:03;;;;;;;6.80;6.07;;;;;;;11.23;100.00;100801.19;4916233;29;20078;-73
2022/10/17 01:08:30;;;;;;;7.63;6.50;;;;;;;11.11;100.00;100797.19;4916236;29;20488;-72
2022/10/17 01:11:26;;;;;;;8.50;6.10;;;;;;;11.17;100.00;100799.19;4916584;29;20046;-73
2022/10/17 01:13:59;;;;;;;7.20;6.13;;;;;;;11.18;100.00;100795.53;4916217;29;20031;-73
2022/10/17 01:16:33;;;;;;;5.33;4.80;;;;;;;11.31;100.00;100787.06;4916281;29;20028;-73
2022/10/17 01:19:22;;;;;;;7.07;5.47;;;;;;;11.29;100.00;100792.56;4916358;29;20032;-74
2022/10/17 01:22:03;;;;;;;5.43;4.93;;;;;;;11.29;100.00;100786.41;4916132;29;20032;-74
2022/10/17 01:24:48;;;;;;;10.57;6.37;;;;;;;11.18;100.00;100788.38;4916207;29;20038;-73
2022/10/17 01:27:36;;;;;;;6.40;5.20;;;;;;;11.12;100.00;100804.19;4916043;29;20044;-73
2022/10/17 01:30:10;;;;;;;;;;;;;;;11.02;100.00;100795.53;4916697;29;20036;-74
2022/10/17 01:32:43;;;;;;;9.17;5.83;;;;;;;10.89;100.00;100796.00;4916164;29;20336;-73
2022/10/17 01:35:18;;;;;;;6.17;4.40;;;;;;;10.83;100.00;100797.50;4916091;29;20024;-73
2022/10/17 01:38:18;;;;;;;6.30;4.53;;;;;;;10.79;100.00;100790.00;4916022;29;20085;-73
2022/10/17 01:41:01;;;;;;;8.73;4.90;;;;;;;10.75;100.00;100789.50;4891747;29;20092;-72
2022/10/17 01:43:52;;;;;;;6.03;3.93;;;;;;;10.79;100.00;100782.00;4915892;29;20032;-73
2022/10/17 01:46:23;;;;;;;4.17;3.57;;;;;;;10.71;100.00;100790.81;4898917;29;20075;-73
2022/10/17 01:48:52;;;;;;;5.33;3.27;;;;;;;10.68;100.00;100785.78;4915920;29;20036;-74
2022/10/17 01:51:25;;;;;;;5.07;3.70;;;;;;;10.73;100.00;100802.13;4915808;29;20130;-73
2022/10/17 01:54:00;;;;;;;4.70;3.87;;;;;;;10.71;100.00;100795.31;4916824;29;20042;-74
2022/10/17 01:56:29;;;;;;;3.57;3.13;;;;;;;10.68;99.88;100780.47;4919352;29;20028;-73
2022/10/17 01:59:06;;;;;;;4.75;3.50;;;;;;;10.73;99.15;100783.50;4902732;29;20022;-73
2022/10/17 02:01:36;;;;;;;4.73;2.90;;;;;;;10.70;99.51;100783.81;4919739;29;20040;-73
2022/10/17 02:04:05;;;;;;;4.20;3.20;;;;;;;10.65;99.02;100788.78;4918751;29;20036;-72
2022/10/17 02:06:37;;;;;;;5.77;3.50;;;;;;;10.64;99.45;100781.78;4918352;29;20055;-73
2022/10/17 02:09:19;;;;;;;3.87;2.83;;;;;;;10.62;99.95;100788.28;4919954;29;20047;-73
2022/10/17 02:11:54;;;;;;;3.83;3.10;;;;;;;10.51;99.94;100770.78;4919808;29;20043;-73
2022/10/17 02:14:32;;;;;;;5.73;2.97;;;;;;;10.79;99.79;100793.50;4919555;29;20036;-73
2022/10/17 02:17:33;;;;;;;7.10;3.67;;;;;;;10.92;98.99;100787.66;4919157;29;20076;-74
2022/10/17 02:20:22;;;;;;;4.07;2.80;;;;;;;11.05;97.97;100790.72;4860889;29;20390;-73
2022/10/17 02:22:51;;;;;;;6.37;3.33;;;;;;;11.07;97.55;100787.88;4916880;29;20032;-74
2022/10/17 02:25:40;;;;;;;;;;;;;;;11.15;97.58;100801.19;4922764;29;20031;-72
2022/10/17 02:28:45;;;;;;;5.53;3.23;;;;;;;11.15;96.46;100795.88;4917361;29;20002;-70
2022/10/17 02:31:16;;;;;;;3.87;3.30;;;;;;;11.08;96.99;100805.53;4928893;29;20032;-73
2022/10/17 02:33:47;;;;;;;5.50;3.00;;;;;;;10.95;96.09;100799.84;4907000;29;20473;-71
2022/10/17 02:36:18;;;;;;;4.20;3.17;;;;;;;10.89;96.50;100811.16;4920594;29;20567;-72
2022/10/17 02:38:45;;;;;;;4.17;3.70;;;;;;;10.81;96.89;100799.47;4902447;29;20038;-73
2022/10/17 02:41:15;;;;;;;4.83;3.00;;;;;;;10.86;96.58;100806.97;4918808;29;20031;-72
2022/10/17 02:43:44;;;;;;;2.97;2.30;;;;;;;10.86;96.71;100806.97;4901886;29;20028;-73
2022/10/17 02:46:19;;;;;;;4.37;2.60;;;;;;;10.90;96.07;100802.16;4918473;29;20118;-73
2022/10/17 02:49:13;;;;;;;2.90;2.53;;;;;;;10.82;95.88;100803.81;4918542;29;20461;-72
2022/10/17 02:51:59;;;;;;;5.60;2.37;;;;;;;10.70;93.95;100810.47;4915683;29;20052;-74
2022/10/17 02:54:42;;;;;;;5.17;2.70;;;;;;;10.65;94.36;100812.75;4918111;29;20139;-74
2022/10/17 02:57:28;;;;;;;8.90;2.37;;;;;;;10.60;93.52;100816.91;4918749;29;20112;-72
2022/10/17 02:59:57;;;;;;;3.27;2.30;;;;;;;10.55;94.00;100809.41;4918422;29;20380;-74
2022/10/17 03:02:23;;;;;;;5.00;1.90;;;;;;;10.55;93.84;100814.72;4919983;29;20032;-72
2022/10/17 03:04:48;;;;;;;3.50;3.00;;;;;;;10.40;93.94;100785.19;4919398;29;20123;-74
2022/10/17 03:07:15;;;;;;;4.40;2.30;;;;;;;10.46;93.42;100797.06;4920445;29;20048;-73
2022/10/17 03:09:41;;;;;;;5.50;2.37;;;;;;;10.46;93.60;100800.56;4920146;29;20032;-72
2022/10/17 03:12:07;;;;;;;3.67;2.37;;;;;;;10.40;93.47;100800.34;4919545;29;20100;-74
2022/10/17 03:14:33;;;;;;;6.67;2.70;;;;;;;10.35;93.53;100797.31;4919081;29;20028;-74
2022/10/17 03:16:58;;;;;;;4.63;2.60;;;;;;;10.36;93.79;100785.69;4918443;29;20032;-74
2022/10/17 03:19:23;;;;;;;2.57;2.07;;;;;;;10.39;93.80;100799.50;4918246;29;20032;-73
2022/10/17 03:21:49;;;;;;;4.20;2.47;;;;;;;10.40;93.88;100800.34;4918072;29;20102;-73
2022/10/17 03:24:14;;;;;;;3.83;2.53;;;;;;;10.34;94.00;100799.16;4918361;29;20384;-73
2022/10/17 03:26:40;;;;;;;3.93;2.57;;;;;;;10.28;94.10;100793.66;4918175;29;20047;-73
2022/10/17 03:29:06;;;;;;;4.53;2.67;;;;;;;10.21;95.03;100783.63;4918508;29;20112;-74
2022/10/17 03:31:31;;;;;;;5.87;2.77;;;;;;;10.18;95.19;100786.59;4918377;29;20038;-73
2022/10/17 03:33:56;;;;;;;4.40;2.30;;;;;;;10.15;95.75;100781.59;4918827;29;20456;-73
2022/10/17 03:36:22;;;;;;;5.03;2.20;;;;;;;10.13;96.53;100783.59;4917580;29;20184;-73
2022/10/17 03:38:48;;;;;;;5.10;2.87;;;;;;;10.08;96.99;100785.03;4918994;29;20031;-73
2022/10/17 03:41:13;;;;;;;3.57;2.80;;;;;;;10.04;97.13;100778.34;4918563;29;20024;-73
2022/10/17 03:43:39;;;;;;;3.93;2.57;;;;;;;9.95;96.81;100772.16;4918433;29;20166;-72
2022/10/17 03:46:05;;;;;;;7.93;2.57;;;;;;;9.90;95.82;100762.00;4917875;29;20035;-73
2022/10/17 03:48:31;;;;;;;4.03;2.60;;;;;;;9.90;95.61;100766.50;4917928;29;20416;-73
2022/10/17 03:51:06;;;;;;;5.27;2.63;;;;;;;9.89;94.90;100767.50;4917616;29;20035;-73
2022/10/17 03:53:32;;;;;;;4.67;2.57;;;;;;;9.89;93.18;100759.50;4918000;29;20035;-73
2022/10/17 03:56:15;;;;;;;3.33;2.13;;;;;;;9.89;91.98;100755.03;4917751;29;20384;-73
2022/10/17 03:58:41;;;;;;;3.47;2.23;;;;;;;9.88;91.39;100753.34;4918081;29;20073;-73
2022/10/17 04:01:08;;;;;;;5.67;1.90;;;;;;;9.88;92.10;100748.03;4918042;29;20032;-73
2022/10/17 04:03:34;;;;;;;6.00;2.13;;;;;;;9.92;91.83;100740.56;4920159;29;20035;-73
2022/10/17 04:06:01;;;;;;;8.97;2.20;;;;;;;9.94;92.61;100741.25;4922688;29;20048;-74
2022/10/17 04:08:27;;;;;;;6.07;2.03;;;;;;;9.98;92.04;100742.59;4918748;29;20652;-71
2022/10/17 04:10:58;;;;;;;11.30;2.57;;;;;;;10.07;91.39;100740.78;4918250;29;20063;-73
2022/10/17 04:13:23;;;;;;;4.53;2.10;;;;;;;10.16;91.54;100739.84;4917658;29;20380;-72
2022/10/17 04:15:57;;;;;;;7.20;3.47;;;;;;;10.20;91.61;100736.72;4917453;29;20028;-72
2022/10/17 04:18:22;;;;;;;5.93;2.30;;;;;;;10.19;91.75;100729.72;4931797;29;20034;-70
2022/10/17 04:20:48;;;;;;;6.70;3.33;;;;;;;10.16;92.14;100735.34;4930419;29;20028;-71
2022/10/17 04:23:14;;;;;;;6.37;2.80;;;;;;;10.10;92.81;100735.13;4918182;29;20028;-72
2022/10/17 04:25:39;;;;;;;6.67;3.03;;;;;;;10.12;93.70;100728.69;4917769;29;20507;-73
2022/10/17 04:28:05;;;;;;;4.50;2.40;;;;;;;10.10;94.19;100722.66;4916999;29;20047;-72
2022/10/17 04:30:30;;;;;;;5.43;2.43;;;;;;;10.18;93.93;100722.72;4916877;29;20472;-72
2022/10/17 04:32:56;;;;;;;9.63;3.40;;;;;;;10.22;93.51;100710.78;4916879;29;20036;-71
2022/10/17 04:35:21;;;;;;;6.67;2.70;;;;;;;10.21;93.50;100701.13;4917047;29;20131;-74
2022/10/17 04:37:46;;;;;;;5.77;3.30;;;;;;;10.34;93.83;100716.63;4916939;29;20040;-71
2022/10/17 04:40:12;;;;;;;5.60;2.77;;;;;;;10.35;93.11;100728.13;4916680;29;20032;-72
2022/10/17 04:42:37;;;;;;;4.10;2.40;;;;;;;10.37;92.73;100731.44;4916609;29;20105;-74
2022/10/17 04:45:09;;;;;;;3.70;2.47;;;;;;;10.37;91.84;100726.13;4916536;29;20063;-71
2022/10/17 04:47:35;;;;;;;6.10;2.40;;;;;;;10.36;92.67;100735.09;4916476;29;20068;-70
2022/10/17 04:50:00;;;;;;;5.87;3.07;;;;;;;10.28;93.23;100738.59;4916675;29;20114;-70
2022/10/17 04:52:26;;;;;;;5.93;3.43;;;;;;;10.27;94.14;100736.09;4916812;29;20040;-71
2022/10/17 04:54:51;;;;;;;3.67;2.60;;;;;;;10.22;94.75;100741.88;4916646;29;20480;-73
2022/10/17 04:57:18;;;;;;;5.57;2.90;;;;;;;10.16;93.83;100740.69;4899846;29;20036;-70
2022/10/17 04:59:44;;;;;;;4.37;2.10;;;;;;;9.97;93.70;100694.84;4916168;29;20032;-72
2022/10/17 05:02:09;;;;;;;2.60;2.03;;;;;;;10.10;92.99;100725.34;4916697;29;20124;-73
2022/10/17 05:04:35;;;;;;;6.93;2.13;;;;;;;9.99;94.33;100728.28;4916619;29;20456;-73
2022/10/17 05:07:01;;;;;;;7.67;2.27;;;;;;;9.91;94.01;100714.97;4915786;29;20475;-72
2022/10/17 05:09:27;;;;;;;4.50;2.10;;;;;;;9.83;94.16;100704.25;4916218;29;20032;-72
2022/10/17 05:11:52;;;;;;;2.73;2.23;;;;;;;9.79;94.38;100711.72;4916211;29;20042;-72
2022/10/17 05:14:18;;;;;;;4.13;2.03;;;;;;;9.76;94.50;100716.53;4916359;29;20126;-72
2022/10/17 05:16:49;;;;;;;4.17;2.20;;;;;;;9.67;95.16;100717.50;4916475;29;20092;-71
2022/10/17 05:19:18;;;;;;;4.83;2.00;;;;;;;9.61;95.33;100719.78;4916134;29;20461;-72
2022/10/17 05:21:43;;;;;;;10.00;2.08;;;;;;;9.66;95.26;100729.13;4916474;29;20066;-72
2022/10/17 05:24:12;;;;;;;3.60;1.83;;;;;;;9.67;95.65;100728.13;4916008;29;20114;-73
2022/10/17 05:26:38;;;;;;;2.20;1.60;;;;;;;9.60;95.34;100725.25;4916250;29;20468;-71
2022/10/17 05:29:04;;;;;;;6.37;2.00;;;;;;;9.54;95.21;100717.88;4915608;29;20024;-71
2022/10/17 05:31:30;;;;;;;2.77;1.93;;;;;;;9.51;95.83;100724.34;4916030;29;20027;-74
2022/10/17 05:34:00;;;;;;;3.47;2.10;;;;;;;9.49;96.33;100720.19;4915847;29;20417;-72
2022/10/17 05:36:26;;;;;;;2.70;1.77;;;;;;;9.49;96.25;100718.38;4915313;29;20055;-73
2022/10/17 05:39:42;;;;;;;4.10;2.13;;;;;;;9.55;96.12;100736.38;4914270;29;20123;-78
2022/10/17 05:42:08;;;;;;;7.70;2.60;;;;;;;9.61;96.24;100717.13;4886383;29;20089;-73
2022/10/17 05:44:33;;;;;;;6.03;2.50;;;;;;;9.61;95.53;100709.16;4898764;29;20113;-76
2022/10/17 05:47:02;;;;;;;4.60;3.10;;;;;;;9.69;95.92;100711.03;4915854;29;20476;-76
2022/10/17 05:49:34;;;;;;;3.22;1.70;;;;;;;9.75;95.77;100726.34;4914227;29;20032;-76
2022/10/17 05:52:06;;;;;;;4.50;2.00;;;;;;;9.78;95.04;100719.88;4915173;29;20358;-76
2022/10/17 05:54:47;;;;;;;3.93;2.03;;;;;;;9.83;93.41;100706.91;4898765;29;20487;-77
2022/10/17 05:57:15;;;;;;;3.17;2.03;;;;;;;9.79;93.25;100713.56;4915190;29;20040;-78
2022/10/17 05:59:41;;;;;;;4.53;1.60;;;;;;;9.89;93.29;100723.09;4898651;29;20031;-77
2022/10/17 06:02:12;;;;;;;3.00;1.57;;;;;;;9.76;93.18;100689.94;4898487;29;20035;-75
2022/10/17 06:04:39;;;;;;;4.13;1.60;;;;;;;9.94;91.84;100714.63;4881273;29;20480;-74
2022/10/17 06:07:05;;;;;;;3.33;1.50;;;;;;;9.99;90.82;100706.16;4915565;29;20095;-75
2022/10/17 06:09:31;;;;;;;5.17;1.73;;;;;;;10.05;91.14;100722.31;4915770;29;20126;-75
2022/10/17 06:11:56;;;;;;;4.23;1.70;;;;;;;10.02;89.86;100706.69;4914826;29;20479;-74
2022/10/17 06:14:22;;;;;;;3.03;2.07;;;;;;;10.06;89.97;100713.34;4916020;29;20380;-74
2022/10/17 06:16:48;;;;;;;5.90;2.57;;;;;;;10.08;90.51;100699.88;4916369;29;20032;-74
2022/10/17 06:19:13;;;;;;;7.57;2.13;;;;;;;10.03;90.73;100702.19;4918785;29;20043;-74
2022/10/17 06:21:39;;;;;;;14.57;2.30;;;;;;;9.96;91.08;100707.31;4935790;29;20469;-75
2022/10/17 06:24:04;;;;;;;5.30;1.93;;;;;;;9.92;91.39;100711.31;4932801;29;20542;-74
2022/10/17 06:26:30;;;;;;;4.20;1.67;;;;;;;10.03;91.41;100712.84;4899566;29;20032;-74
2022/10/17 06:28:55;;;;;;;3.90;1.60;;;;;;;10.14;91.20;100694.78;4915859;29;20028;-74
2022/10/17 06:31:21;;;;;;;4.63;2.10;;;;;;;10.24;90.18;100700.81;4915931;29;20484;-74
2022/10/17 06:33:46;;;;;;;5.30;1.93;;;;;;;10.36;89.67;100703.16;4915928;29;20034;-74
2022/10/17 06:36:13;;;;;;;4.27;1.87;;;;;;;10.45;89.51;100702.22;4898612;29;20088;-74
2022/10/17 06:38:38;;;;;;;4.17;1.60;;;;;;;10.56;89.78;100707.22;4915878;29;20062;-73
2022/10/17 06:41:13;;;;;;;7.40;1.70;;;;;;;10.55;89.03;100681.56;4918095;29;20055;-74
2022/10/17 06:43:45;;;;;;;5.83;2.00;;;;;;;10.58;88.74;100694.56;4919090;29;20040;-74
2022/10/17 06:46:11;;;;;;;3.33;1.70;;;;;;;10.54;89.00;100683.41;4918810;29;20492;-75
2022/10/17 06:48:37;;;;;;;8.40;2.13;;;;;;;10.62;89.14;100687.06;4919118;29;20032;-74
2022/10/17 06:51:04;;;;;;;7.20;3.10;;;;;;;10.64;88.37;100685.91;4918954;29;20035;-75
2022/10/17 06:53:32;;;;;;;5.03;1.97;;;;;;;10.62;87.88;100695.88;4918985;29;20412;-73
2022/10/17 06:56:23;;;;;;;5.47;2.20;;;;;;;10.38;89.89;100674.53;4919011;29;20117;-74
2022/10/17 06:58:50;;;;;;;4.87;2.07;;;;;;;10.32;90.15;100693.84;4918884;29;20116;-74
2022/10/17 07:01:16;;;;;;;4.67;1.97;;;;;;;10.19;91.30;100697.78;4919158;29;20024;-74
2022/10/17 07:03:42;;;;;;;5.77;2.20;;;;;;;10.13;91.51;100687.78;4918847;29;20031;-75
2022/10/17 07:06:10;;;;;;;7.13;2.90;;;;;;;10.07;91.36;100687.56;4918496;29;20139;-73
2022/10/17 07:08:36;;;;;;;4.73;1.93;;;;;;;9.99;92.26;100682.22;4918629;29;20115;-75
2022/10/17 07:11:10;;;;;;;9.37;2.40;;;;;;;9.90;93.82;100686.69;4918395;29;20392;-73
2022/10/17 07:13:36;;;;;;;8.13;2.07;;;;;;;9.88;95.16;100694.00;4901788;29;20128;-75
2022/10/17 07:16:01;;;;;;;5.10;2.47;;;;;;;9.76;95.55;100695.25;4918637;29;20081;-74
2022/10/17 07:18:27;;;;;;;9.63;2.80;;;;;;;9.62;94.87;100697.53;4918538;29;20464;-73
2022/10/17 07:20:53;;;;;;;8.07;1.80;;;;;;;9.46;97.08;100699.25;4901447;29;20035;-74
2022/10/17 07:23:19;;;;;;;3.93;2.17;;;;;;;9.40;97.26;100700.72;4918060;29;20028;-74
2022/10/17 07:25:45;;;;;;;7.30;2.10;;;;;;;9.29;98.68;100700.97;4918126;29;20028;-73
2022/10/17 07:28:10;;;;;;;6.07;1.83;;;;;;;9.26;99.50;100703.94;4918124;29;20103;-73
2022/10/17 07:30:36;;;;;;;4.87;2.27;;;;;;;9.17;99.40;100688.91;4918219;29;20024;-74
2022/10/17 07:33:01;;;;;;;8.20;2.37;;;;;;;9.15;100.00;100704.19;4918276;29;20043;-74
2022/10/17 07:35:27;;;;;;;4.57;2.00;;;;;;;9.04;100.00;100710.59;4918100;29;20027;-72
2022/10/17 07:37:52;;;;;;;3.63;1.43;;;;;;;8.96;100.00;100708.69;4901161;29;20119;-74
2022/10/17 07:40:18;;;;;;;6.20;1.90;;;;;;;8.79;100.00;100696.25;4918049;29;20425;-74
2022/10/17 07:42:43;;;;;;;5.37;2.63;;;;;;;8.85;100.00;100698.28;4929226;29;20038;-74
2022/10/17 07:45:09;;;;;;;4.80;2.07;;;;;;;8.77;100.00;100698.22;4937429;29;20036;-71
2022/10/17 07:47:35;;;;;;;4.77;1.90;;;;;;;8.68;100.00;100701.81;4922284;29;20055;-73
2022/10/17 07:50:01;;;;;;;3.57;1.57;;;;;;;8.75;100.00;100692.25;4917821;29;20039;-73
2022/10/17 07:52:29;;;;;;;3.03;1.73;;;;;;;8.58;100.00;100677.97;4900557;29;20138;-73
2022/10/17 07:54:54;;;;;;;7.13;2.03;;;;;;;8.60;100.00;100683.13;4918013;29;20464;-75
2022/10/17 07:57:20;;;;;;;5.27;2.00;;;;;;;8.64;100.00;100676.53;4911278;29;20186;-74
2022/10/17 07:59:46;;;;;;;11.23;2.43;;;;;;;8.59;100.00;100689.44;4929131;29;20119;-72
2022/10/17 08:02:30;;;;;;;5.40;1.97;;;;;;;8.56;100.00;100687.91;4917687;29;20040;-73
2022/10/17 08:04:55;;;;;;;3.83;1.80;;;;;;;8.55;100.00;100688.91;4917399;29;20421;-74
2022/10/17 08:07:22;;;;;;;4.30;1.87;;;;;;;8.53;100.00;100690.03;4917537;29;20059;-73
2022/10/17 08:09:47;;;;;;;5.27;2.10;;;;;;;8.37;100.00;100661.50;4917617;29;20059;-73
2022/10/17 08:12:14;;;;;;;7.43;3.10;;;;;;;8.53;100.00;100684.72;4917466;29;20032;-73
2022/10/17 08:14:41;;;;;;;3.73;1.90;;;;;;;8.53;100.00;100677.59;4917394;29;20058;-72
2022/10/17 08:17:06;;;;;;;7.63;2.50;;;;;;;8.50;100.00;100667.28;4917312;29;20024;-73
2022/10/17 08:19:32;;;;;;;5.07;2.07;;;;;;;8.57;100.00;100686.09;4917019;29;20044;-74
2022/10/17 08:21:58;;;;;;;4.23;1.90;;;;;;;8.53;100.00;100671.47;4917424;29;20171;-73
2022/10/17 08:24:24;;;;;;;5.17;1.80;;;;;;;8.52;100.00;100677.75;4917522;29;20024;-73
2022/10/17 08:26:52;;;;;;;4.40;1.80;;;;;;;8.47;100.00;100695.97;4917299;29;20032;-73
2022/10/17 08:29:18;;;;;;;5.67;2.00;;;;;;;8.49;100.00;100693.97;4917455;29;20080;-73
2022/10/17 08:31:44;;;;;;;6.13;2.37;;;;;;;8.52;100.00;100693.69;4917215;29;20340;-73
2022/10/17 08:34:09;;;;;;;6.50;1.60;;;;;;;8.60;100.00;100712.34;4916831;29;20472;-73
2022/10/17 08:36:35;;;;;;;3.77;1.87;;;;;;;8.63;100.00;100725.28;4920608;29;20074;-72
2022/10/17 08:39:01;;;;;;;5.20;1.97;;;;;;;8.62;100.00;100713.84;4931094;29;20043;-74
2022/10/17 08:41:55;;;;;;;7.47;2.00;;;;;;;8.57;100.00;100721.44;4933123;29;20035;-72
2022/10/17 08:44:26;;;;;;;5.87;2.37;;;;;;;8.61;100.00;100737.88;4931700;29;20042;-72
2022/10/17 08:46:57;;;;;;;4.77;1.93;;;;;;;8.63;100.00;100739.41;4933688;29;20280;-73
2022/10/17 08:49:30;;;;;;;6.27;1.87;;;;;;;8.76;100.00;100754.97;4901994;29;20108;-72
2022/10/17 08:52:04;;;;;;;11.07;2.13;;;;;;;8.81;100.00;100751.88;4933951;29;20099;-72
2022/10/17 08:54:47;;;;;;;7.70;2.30;;;;;;;8.88;100.00;100771.53;4918237;29;20111;-72
2022/10/17 08:57:15;;;;;;;7.30;2.40;;;;;;;8.84;100.00;100756.88;4902516;29;20036;-74
2022/10/17 08:59:42;;;;;;;9.75;3.65;;;;;;;8.88;100.00;100763.56;4918931;29;20068;-73
2022/10/17 09:02:20;;;;;;;13.70;2.80;;;;;;;8.97;100.00;100762.66;4918167;29;20118;-73
2022/10/17 09:05:03;;;;;;;15.53;2.80;;;;;;;9.06;100.00;100808.72;4917167;29;20028;-74
2022/10/17 09:07:47;;;;;;;4.90;2.80;;;;;;;9.09;100.00;100792.47;4916895;29;20373;-72
2022/10/17 09:10:22;;;;;;;6.47;2.70;;;;;;;9.11;100.00;100801.13;4917328;29;20032;-73
2022/10/17 09:13:09;;;;;;;10.73;2.40;;;;;;;9.13;100.00;100805.31;4900256;29;20036;-73
2022/10/17 09:15:44;;;;;;;11.63;2.83;;;;;;;9.18;100.00;100824.28;4900579;29;20365;-74
2022/10/17 09:18:16;;;;;;;13.90;4.00;;;;;;;9.20;100.00;100818.81;4917219;29;20135;-72
2022/10/17 09:20:50;;;;;;;6.63;2.43;;;;;;;9.23;100.00;100826.47;4918407;29;20432;-72
2022/10/17 09:23:22;;;;;;;5.60;1.90;;;;;;;9.21;100.00;100841.72;4917959;29;20032;-72
2022/10/17 09:25:57;;;;;;;9.07;3.60;;;;;;;9.19;100.00;100851.69;4917737;29;20039;-73
2022/10/17 09:28:30;;;;;;;5.03;2.57;;;;;;;9.19;100.00;100831.25;4899405;29;20376;-73
2022/10/17 09:31:06;;;;;;;6.53;2.03;;;;;;;9.24;100.00;100868.84;4917553;29;20036;-72
2022/10/17 09:33:43;;;;;;;5.43;2.30;;;;;;;9.30;100.00;100878.03;4918537;29;20056;-73
2022/10/17 09:36:18;;;;;;;11.67;2.77;;;;;;;9.24;100.00;100886.59;4907960;29;20031;-72
2022/10/17 09:39:07;;;;;;;10.37;3.00;;;;;;;9.28;100.00;100893.31;4927889;29;20074;-73
2022/10/17 09:41:47;;;;;;;8.73;2.43;;;;;;;9.29;100.00;100901.13;4927324;29;20038;-73
2022/10/17 09:44:29;;;;;;;6.17;2.37;;;;;;;9.30;100.00;100905.47;4930370;29;20024;-71
2022/10/17 09:46:57;;;;;;;7.97;2.73;;;;;;;9.27;100.00;100908.44;4926410;29;20032;-73
2022/10/17 09:49:31;;;;;;;3.78;2.20;;;;;;;9.29;100.00;100938.34;4917850;29;20039;-74
2022/10/17 09:51:56;;;;;;;6.03;2.43;;;;;;;9.34;100.00;100935.22;4916093;29;20066;-74
2022/10/17 09:54:35;;;;;;;9.63;2.50;;;;;;;9.31;100.00;100957.63;4915966;29;20468;-73
2022/10/17 09:57:07;;;;;;;8.20;2.63;;;;;;;9.30;100.00;100940.00;4916095;29;20036;-73
2022/10/17 09:59:35;;;;;;;6.67;2.43;;;;;;;9.26;100.00;100943.13;4915792;29;20039;-73
2022/10/17 10:02:07;;;;;;;6.10;2.67;;;;;;;9.30;100.00;100949.81;4915850;29;20429;-73
2022/10/17 10:04:33;;;;;;;3.37;2.40;;;;;;;9.23;100.00;100954.03;4898870;29;20548;-73
2022/10/17 10:07:06;;;;;;;3.53;2.97;;;;;;;9.28;100.00;100979.19;4915706;29;20048;-72
2022/10/17 10:09:34;;;;;;;8.47;3.83;;;;;;;9.35;100.00;101002.50;4914510;29;20036;-73
2022/10/17 10:12:05;;;;;;;9.75;2.85;;;;;;;9.34;100.00;100971.59;4915507;29;20032;-72
2022/10/17 10:14:36;;;;;;;5.63;2.50;;;;;;;9.38;100.00;100995.06;4916145;29;20479;-73
2022/10/17 10:17:23;;;;;;;9.23;2.77;;;;;;;9.42;100.00;101011.56;4919506;29;20195;-73
2022/10/17 10:19:49;;;;;;;8.67;3.00;;;;;;;9.37;100.00;101014.66;4919363;29;20465;-72
2022/10/17 10:22:18;;;;;;;5.70;2.73;;;;;;;9.36;100.00;101014.81;4919351;29;20028;-73
2022/10/17 10:24:44;;;;;;;6.78;2.97;;;;;;;9.28;100.00;101020.88;4919078;29;20039;-74
2022/10/17 10:27:17;;;;;;;9.87;2.50;;;;;;;9.22;100.00;101029.41;4919108;29;20036;-73
2022/10/17 10:29:50;;;;;;;5.03;2.07;;;;;;;9.20;100.00;101029.56;4919006;29;20114;-74
2022/10/17 10:32:29;;;;;;;3.90;2.33;;;;;;;9.22;100.00;101034.72;4919166;29;20377;-73
2022/10/17 10:34:59;;;;;;;5.10;2.73;;;;;;;9.22;100.00;101042.72;4918980;29;20472;-75
2022/10/17 10:37:29;;;;;;;7.70;3.33;;;;;;;9.27;100.00;101043.13;4919481;29;20039;-72
2022/10/17 10:40:01;;;;;;;5.93;2.10;;;;;;;9.33;100.00;101085.06;4923459;29;20035;-73
2022/10/17 10:42:35;;;;;;;5.00;2.03;;;;;;;9.38;100.00;101053.56;4924513;29;20489;-72
2022/10/17 10:45:13;;;;;;;5.43;2.07;;;;;;;9.46;100.00;101093.53;4919069;29;20047;-73
2022/10/17 10:47:39;;;;;;;8.67;2.17;;;;;;;9.48;100.00;101078.25;4918681;29;20044;-72
2022/10/17 10:50:16;;;;;;;3.83;1.93;;;;;;;9.47;100.00;101084.56;4918870;29;20032;-73
2022/10/17 10:53:03;;;;;;;5.30;2.00;;;;;;;9.58;100.00;101092.34;4918920;29;20032;-74
2022/10/17 10:55:39;;;;;;;11.30;2.40;;;;;;;9.62;100.00;101096.38;4918692;29;20036;-74
2022/10/17 10:58:24;;;;;;;5.97;3.00;;;;;;;9.67;100.00;101117.22;4918603;29;20448;-73
2022/10/17 11:00:52;;;;;;;4.33;1.80;;;;;;;9.65;100.00;101102.41;4908369;29;20040;-74
2022/10/17 11:03:25;;;;;;;5.10;2.20;;;;;;;9.68;100.00;101108.25;4917469;29;20048;-72
2022/10/17 11:06:02;;;;;;;7.23;1.97;;;;;;;9.73;100.00;101134.41;4901502;29;20050;-72
2022/10/17 11:08:44;;;;;;;6.53;2.40;;;;;;;9.75;100.00;101129.75;4918504;29;20130;-74
2022/10/17 11:11:16;;;;;;;8.03;2.97;;;;;;;9.77;100.00;101151.72;4924597;29;20020;-74
2022/10/17 11:14:05;;;;;;;5.70;2.00;;;;;;;9.82;100.00;101158.28;4922799;29;20067;-70
2022/10/17 11:16:58;;;;;;;3.10;1.87;;;;;;;9.82;99.34;101149.47;4920313;29;20036;-73
2022/10/17 11:19:32;;;;;;;3.27;2.00;;;;;;;9.85;99.66;101165.16;4901576;29;20024;-73
2022/10/17 11:22:20;;;;;;;8.40;3.47;;;;;;;9.85;99.34;101189.94;4918380;29;20119;-74
2022/10/17 11:24:55;;;;;;;6.25;2.55;;;;;;;9.84;98.56;101177.63;4918170;29;20034;-72
2022/10/17 11:27:28;;;;;;;5.00;2.27;;;;;;;9.88;99.60;101186.13;4917628;29;20075;-73
2022/10/17 11:29:54;;;;;;;7.90;2.23;;;;;;;9.82;100.00;101179.56;4918274;29;20028;-73
2022/10/17 11:32:25;;;;;;;5.13;2.60;;;;;;;9.88;99.87;101200.28;4901164;29;20024;-72
2022/10/17 11:34:58;;;;;;;4.97;2.27;;;;;;;9.94;99.87;101204.16;4917840;29;20042;-72
2022/10/17 11:37:38;;;;;;;9.80;2.57;;;;;;;9.94;99.46;101210.31;4918143;29;20063;-74
2022/10/17 11:40:14;;;;;;;8.67;2.00;;;;;;;9.93;99.94;101186.53;4918066;29;20027;-73
2022/10/17 11:43:16;;;;;;;3.10;1.70;;;;;;;9.96;99.29;101202.19;4918002;29;20064;-73
2022/10/17 11:45:46;;;;;;;6.73;2.03;;;;;;;9.98;99.27;101210.03;4887202;29;20040;-74